sensor_id;sensor_type;location;lat;lon;timestamp;P1;durP1;ratioP1;P2;durP2;ratioP2
14187;SDS011;7175;51.978;5.330;2023-09-19T00:02:15;127.43;;;117.03;;
14187;SDS011;7175;51.978;5.330;2023-09-19T00:04:43;125.87;;;115.67;;
14187;SDS011;7175;51.978;5.330;2023-09-19T00:07:11;128.20;;;117.77;;
14187;SDS011;7175;51.978;5.330;2023-09-19T00:09:40;130.70;;;120.27;;
14187;SDS011;7175;51.978;5.330;2023-09-19T00:12:10;131.17;;;120.47;;
14187;SDS011;7175;51.978;5.330;2023-09-19T00:14:41;130.30;;;119.53;;
14187;SDS011;7175;51.978;5.330;2023-09-19T00:17:09;130.67;;;119.77;;
14187;SDS011;7175;51.978;5.330;2023-09-19T00:19:37;131.70;;;121.10;;
14187;SDS011;7175;51.978;5.330;2023-09-19T00:22:05;132.33;;;121.50;;
14187;SDS011;7175;51.978;5.330;2023-09-19T00:24:33;136.10;;;124.90;;
14187;SDS011;7175;51.978;5.330;2023-09-19T00:27:02;137.73;;;126.63;;
14187;SDS011;7175;51.978;5.330;2023-09-19T00:29:32;135.60;;;124.57;;
14187;SDS011;7175;51.978;5.330;2023-09-19T00:32:01;130.13;;;119.33;;
14187;SDS011;7175;51.978;5.330;2023-09-19T00:34:31;131.67;;;120.77;;
14187;SDS011;7175;51.978;5.330;2023-09-19T00:37:01;131.10;;;120.20;;
14187;SDS011;7175;51.978;5.330;2023-09-19T00:39:30;140.93;;;129.73;;
14187;SDS011;7175;51.978;5.330;2023-09-19T00:41:58;137.63;;;126.47;;
14187;SDS011;7175;51.978;5.330;2023-09-19T00:44:31;137.80;;;126.70;;
14187;SDS011;7175;51.978;5.330;2023-09-19T00:47:05;138.13;;;127.00;;
14187;SDS011;7175;51.978;5.330;2023-09-19T00:49:35;139.07;;;127.90;;
14187;SDS011;7175;51.978;5.330;2023-09-19T00:52:04;139.67;;;128.27;;
14187;SDS011;7175;51.978;5.330;2023-09-19T00:54:33;139.93;;;128.33;;
14187;SDS011;7175;51.978;5.330;2023-09-19T00:57:02;139.00;;;127.43;;
14187;SDS011;7175;51.978;5.330;2023-09-19T00:59:31;139.57;;;128.07;;
14187;SDS011;7175;51.978;5.330;2023-09-19T01:01:59;138.47;;;127.07;;
14187;SDS011;7175;51.978;5.330;2023-09-19T01:04:29;141.90;;;130.30;;
14187;SDS011;7175;51.978;5.330;2023-09-19T01:07:00;139.97;;;128.70;;
14187;SDS011;7175;51.978;5.330;2023-09-19T01:09:28;141.30;;;130.07;;
14187;SDS011;7175;51.978;5.330;2023-09-19T01:11:58;141.37;;;129.97;;
14187;SDS011;7175;51.978;5.330;2023-09-19T01:14:34;139.43;;;128.17;;
14187;SDS011;7175;51.978;5.330;2023-09-19T01:17:14;137.83;;;126.83;;
14187;SDS011;7175;51.978;5.330;2023-09-19T01:20:06;136.50;;;125.60;;
14187;SDS011;7175;51.978;5.330;2023-09-19T01:22:50;134.87;;;124.27;;
14187;SDS011;7175;51.978;5.330;2023-09-19T01:28:39;130.47;;;120.27;;
14187;SDS011;7175;51.978;5.330;2023-09-19T01:31:15;120.83;;;111.10;;
14187;SDS011;7175;51.978;5.330;2023-09-19T01:33:58;118.83;;;109.23;;
14187;SDS011;7175;51.978;5.330;2023-09-19T01:36:28;115.47;;;106.07;;
14187;SDS011;7175;51.978;5.330;2023-09-19T01:38:57;113.57;;;104.07;;
14187;SDS011;7175;51.978;5.330;2023-09-19T01:41:51;112.83;;;103.70;;
14187;SDS011;7175;51.978;5.330;2023-09-19T01:44:29;112.10;;;103.30;;
14187;SDS011;7175;51.978;5.330;2023-09-19T01:47:08;111.73;;;102.93;;
14187;SDS011;7175;51.978;5.330;2023-09-19T01:49:44;108.67;;;100.37;;
14187;SDS011;7175;51.978;5.330;2023-09-19T01:52:23;110.17;;;101.97;;
14187;SDS011;7175;51.978;5.330;2023-09-19T01:54:56;110.83;;;102.53;;
14187;SDS011;7175;51.978;5.330;2023-09-19T01:57:34;109.20;;;101.00;;
14187;SDS011;7175;51.978;5.330;2023-09-19T02:00:10;112.03;;;103.53;;
14187;SDS011;7175;51.978;5.330;2023-09-19T02:02:43;109.77;;;101.37;;
14187;SDS011;7175;51.978;5.330;2023-09-19T02:05:19;107.93;;;99.93;;
14187;SDS011;7175;51.978;5.330;2023-09-19T02:07:50;106.73;;;99.03;;
14187;SDS011;7175;51.978;5.330;2023-09-19T02:10:20;105.67;;;98.27;;
14187;SDS011;7175;51.978;5.330;2023-09-19T02:12:49;106.67;;;99.10;;
14187;SDS011;7175;51.978;5.330;2023-09-19T02:15:17;104.90;;;97.50;;
14187;SDS011;7175;51.978;5.330;2023-09-19T02:17:47;103.17;;;96.37;;
14187;SDS011;7175;51.978;5.330;2023-09-19T02:20:15;103.80;;;96.90;;
14187;SDS011;7175;51.978;5.330;2023-09-19T02:22:46;103.60;;;96.50;;
14187;SDS011;7175;51.978;5.330;2023-09-19T02:25:16;105.10;;;97.97;;
14187;SDS011;7175;51.978;5.330;2023-09-19T02:27:46;104.70;;;97.50;;
14187;SDS011;7175;51.978;5.330;2023-09-19T02:30:14;104.37;;;97.17;;
14187;SDS011;7175;51.978;5.330;2023-09-19T02:32:48;101.87;;;95.17;;
14187;SDS011;7175;51.978;5.330;2023-09-19T02:35:17;100.13;;;93.73;;
14187;SDS011;7175;51.978;5.330;2023-09-19T02:37:46;102.17;;;95.53;;
14187;SDS011;7175;51.978;5.330;2023-09-19T02:40:14;97.37;;;91.27;;
14187;SDS011;7175;51.978;5.330;2023-09-19T02:42:46;100.43;;;94.03;;
14187;SDS011;7175;51.978;5.330;2023-09-19T02:45:15;96.37;;;90.37;;
14187;SDS011;7175;51.978;5.330;2023-09-19T02:47:45;96.40;;;90.30;;
14187;SDS011;7175;51.978;5.330;2023-09-19T02:50:15;97.33;;;91.10;;
14187;SDS011;7175;51.978;5.330;2023-09-19T02:52:44;92.23;;;86.53;;
14187;SDS011;7175;51.978;5.330;2023-09-19T02:55:15;91.17;;;85.47;;
14187;SDS011;7175;51.978;5.330;2023-09-19T02:57:46;92.47;;;86.70;;
14187;SDS011;7175;51.978;5.330;2023-09-19T03:00:15;91.57;;;85.90;;
14187;SDS011;7175;51.978;5.330;2023-09-19T03:02:47;93.77;;;87.97;;
14187;SDS011;7175;51.978;5.330;2023-09-19T03:05:17;93.00;;;87.30;;
14187;SDS011;7175;51.978;5.330;2023-09-19T03:07:45;96.03;;;90.13;;
14187;SDS011;7175;51.978;5.330;2023-09-19T03:10:18;96.70;;;90.77;;
14187;SDS011;7175;51.978;5.330;2023-09-19T03:12:47;89.77;;;84.33;;
14187;SDS011;7175;51.978;5.330;2023-09-19T03:15:16;93.20;;;87.50;;
14187;SDS011;7175;51.978;5.330;2023-09-19T03:17:45;93.40;;;87.70;;
14187;SDS011;7175;51.978;5.330;2023-09-19T03:20:14;92.07;;;86.50;;
14187;SDS011;7175;51.978;5.330;2023-09-19T03:22:45;90.50;;;85.10;;
14187;SDS011;7175;51.978;5.330;2023-09-19T03:25:13;91.10;;;85.60;;
14187;SDS011;7175;51.978;5.330;2023-09-19T03:27:41;85.17;;;80.10;;
14187;SDS011;7175;51.978;5.330;2023-09-19T03:30:10;81.40;;;76.60;;
14187;SDS011;7175;51.978;5.330;2023-09-19T03:32:43;84.47;;;79.50;;
14187;SDS011;7175;51.978;5.330;2023-09-19T03:35:12;82.40;;;77.60;;
14187;SDS011;7175;51.978;5.330;2023-09-19T03:37:43;88.93;;;83.73;;
14187;SDS011;7175;51.978;5.330;2023-09-19T03:40:11;81.93;;;77.13;;
14187;SDS011;7175;51.978;5.330;2023-09-19T03:42:41;76.17;;;71.57;;
14187;SDS011;7175;51.978;5.330;2023-09-19T03:45:09;75.23;;;70.70;;
14187;SDS011;7175;51.978;5.330;2023-09-19T03:47:39;74.47;;;69.97;;
14187;SDS011;7175;51.978;5.330;2023-09-19T03:50:08;71.37;;;67.07;;
14187;SDS011;7175;51.978;5.330;2023-09-19T03:52:38;72.30;;;68.00;;
14187;SDS011;7175;51.978;5.330;2023-09-19T03:55:08;72.80;;;68.50;;
14187;SDS011;7175;51.978;5.330;2023-09-19T03:57:36;73.57;;;69.17;;
14187;SDS011;7175;51.978;5.330;2023-09-19T04:00:05;79.30;;;74.70;;
14187;SDS011;7175;51.978;5.330;2023-09-19T04:02:38;70.63;;;66.43;;
14187;SDS011;7175;51.978;5.330;2023-09-19T04:05:06;66.97;;;62.90;;
14187;SDS011;7175;51.978;5.330;2023-09-19T04:07:35;65.97;;;61.97;;
14187;SDS011;7175;51.978;5.330;2023-09-19T04:10:04;59.20;;;55.50;;
14187;SDS011;7175;51.978;5.330;2023-09-19T04:12:36;63.83;;;59.93;;
14187;SDS011;7175;51.978;5.330;2023-09-19T04:15:05;69.40;;;65.30;;
14187;SDS011;7175;51.978;5.330;2023-09-19T04:17:34;68.03;;;63.93;;
14187;SDS011;7175;51.978;5.330;2023-09-19T04:20:03;60.93;;;57.17;;
14187;SDS011;7175;51.978;5.330;2023-09-19T04:22:33;61.47;;;57.70;;
14187;SDS011;7175;51.978;5.330;2023-09-19T04:25:01;60.80;;;57.07;;
14187;SDS011;7175;51.978;5.330;2023-09-19T04:27:30;67.00;;;63.00;;
14187;SDS011;7175;51.978;5.330;2023-09-19T04:29:59;61.77;;;57.97;;
14187;SDS011;7175;51.978;5.330;2023-09-19T04:32:36;61.93;;;58.13;;
14187;SDS011;7175;51.978;5.330;2023-09-19T04:35:06;63.40;;;59.50;;
14187;SDS011;7175;51.978;5.330;2023-09-19T04:37:37;64.60;;;60.70;;
14187;SDS011;7175;51.978;5.330;2023-09-19T04:40:07;67.40;;;63.40;;
14187;SDS011;7175;51.978;5.330;2023-09-19T04:42:39;61.97;;;58.17;;
14187;SDS011;7175;51.978;5.330;2023-09-19T04:45:10;61.63;;;57.90;;
14187;SDS011;7175;51.978;5.330;2023-09-19T04:47:38;60.03;;;56.37;;
14187;SDS011;7175;51.978;5.330;2023-09-19T04:50:07;56.37;;;52.87;;
14187;SDS011;7175;51.978;5.330;2023-09-19T04:52:40;58.20;;;54.60;;
14187;SDS011;7175;51.978;5.330;2023-09-19T04:55:11;64.30;;;60.37;;
14187;SDS011;7175;51.978;5.330;2023-09-19T04:57:43;60.93;;;57.13;;
14187;SDS011;7175;51.978;5.330;2023-09-19T05:00:14;61.80;;;58.00;;
14187;SDS011;7175;51.978;5.330;2023-09-19T05:02:45;73.47;;;69.07;;
14187;SDS011;7175;51.978;5.330;2023-09-19T05:05:14;70.10;;;65.90;;
14187;SDS011;7175;51.978;5.330;2023-09-19T05:07:44;67.10;;;63.10;;
14187;SDS011;7175;51.978;5.330;2023-09-19T05:10:12;67.70;;;63.60;;
14187;SDS011;7175;51.978;5.330;2023-09-19T05:12:41;67.70;;;63.60;;
14187;SDS011;7175;51.978;5.330;2023-09-19T05:15:11;70.90;;;66.70;;
14187;SDS011;7175;51.978;5.330;2023-09-19T05:17:47;64.90;;;60.90;;
14187;SDS011;7175;51.978;5.330;2023-09-19T05:20:20;75.00;;;70.60;;
14187;SDS011;7175;51.978;5.330;2023-09-19T05:22:59;74.40;;;70.00;;
14187;SDS011;7175;51.978;5.330;2023-09-19T05:25:29;68.03;;;63.83;;
14187;SDS011;7175;51.978;5.330;2023-09-19T05:27:59;78.77;;;74.07;;
14187;SDS011;7175;51.978;5.330;2023-09-19T05:30:31;77.03;;;72.33;;
14187;SDS011;7175;51.978;5.330;2023-09-19T05:33:02;72.03;;;67.53;;
14187;SDS011;7175;51.978;5.330;2023-09-19T05:35:31;75.97;;;71.27;;
14187;SDS011;7175;51.978;5.330;2023-09-19T05:37:59;79.70;;;74.80;;
14187;SDS011;7175;51.978;5.330;2023-09-19T05:40:27;73.97;;;69.37;;
14187;SDS011;7175;51.978;5.330;2023-09-19T05:42:56;77.23;;;72.43;;
14187;SDS011;7175;51.978;5.330;2023-09-19T05:45:24;71.00;;;66.50;;
14187;SDS011;7175;51.978;5.330;2023-09-19T05:47:53;71.60;;;67.10;;
14187;SDS011;7175;51.978;5.330;2023-09-19T05:50:27;68.93;;;64.53;;
14187;SDS011;7175;51.978;5.330;2023-09-19T05:52:56;66.90;;;62.60;;
14187;SDS011;7175;51.978;5.330;2023-09-19T05:55:24;73.10;;;68.43;;
14187;SDS011;7175;51.978;5.330;2023-09-19T05:57:52;69.80;;;65.30;;
14187;SDS011;7175;51.978;5.330;2023-09-19T06:00:21;71.33;;;66.80;;
14187;SDS011;7175;51.978;5.330;2023-09-19T06:02:50;74.13;;;69.43;;
14187;SDS011;7175;51.978;5.330;2023-09-19T06:05:21;74.27;;;69.57;;
14187;SDS011;7175;51.978;5.330;2023-09-19T06:07:49;74.60;;;69.90;;
14187;SDS011;7175;51.978;5.330;2023-09-19T06:10:19;71.70;;;67.13;;
14187;SDS011;7175;51.978;5.330;2023-09-19T06:12:49;76.03;;;71.23;;
14187;SDS011;7175;51.978;5.330;2023-09-19T06:15:17;74.40;;;69.70;;
14187;SDS011;7175;51.978;5.330;2023-09-19T06:17:46;75.10;;;70.33;;
14187;SDS011;7175;51.978;5.330;2023-09-19T06:20:14;82.83;;;77.70;;
14187;SDS011;7175;51.978;5.330;2023-09-19T06:22:45;80.23;;;75.23;;
14187;SDS011;7175;51.978;5.330;2023-09-19T06:25:14;80.97;;;75.87;;
14187;SDS011;7175;51.978;5.330;2023-09-19T06:27:46;77.20;;;72.30;;
14187;SDS011;7175;51.978;5.330;2023-09-19T06:30:15;80.80;;;75.70;;
14187;SDS011;7175;51.978;5.330;2023-09-19T06:32:44;83.37;;;78.07;;
14187;SDS011;7175;51.978;5.330;2023-09-19T06:35:13;80.13;;;75.03;;
14187;SDS011;7175;51.978;5.330;2023-09-19T06:37:42;80.67;;;75.57;;
14187;SDS011;7175;51.978;5.330;2023-09-19T06:40:12;80.17;;;75.07;;
14187;SDS011;7175;51.978;5.330;2023-09-19T06:42:41;80.47;;;75.40;;
14187;SDS011;7175;51.978;5.330;2023-09-19T06:45:11;78.90;;;73.90;;
14187;SDS011;7175;51.978;5.330;2023-09-19T06:47:40;77.27;;;72.30;;
14187;SDS011;7175;51.978;5.330;2023-09-19T06:50:09;70.03;;;65.43;;
14187;SDS011;7175;51.978;5.330;2023-09-19T06:52:41;66.13;;;61.73;;
14187;SDS011;7175;51.978;5.330;2023-09-19T06:55:11;69.43;;;64.83;;
14187;SDS011;7175;51.978;5.330;2023-09-19T06:57:42;68.10;;;63.50;;
14187;SDS011;7175;51.978;5.330;2023-09-19T07:00:11;66.87;;;62.37;;
14187;SDS011;7175;51.978;5.330;2023-09-19T07:02:45;64.50;;;60.17;;
14187;SDS011;7175;51.978;5.330;2023-09-19T07:05:22;66.57;;;62.17;;
14187;SDS011;7175;51.978;5.330;2023-09-19T07:07:51;62.87;;;58.67;;
14187;SDS011;7175;51.978;5.330;2023-09-19T07:10:22;61.73;;;57.57;;
14187;SDS011;7175;51.978;5.330;2023-09-19T07:12:54;56.13;;;52.23;;
14187;SDS011;7175;51.978;5.330;2023-09-19T07:15:24;57.47;;;53.47;;
14187;SDS011;7175;51.978;5.330;2023-09-19T07:17:52;55.83;;;51.97;;
14187;SDS011;7175;51.978;5.330;2023-09-19T07:20:23;57.30;;;53.40;;
14187;SDS011;7175;51.978;5.330;2023-09-19T07:22:53;57.20;;;53.30;;
14187;SDS011;7175;51.978;5.330;2023-09-19T07:25:23;54.53;;;50.73;;
14187;SDS011;7175;51.978;5.330;2023-09-19T07:27:52;52.47;;;48.77;;
14187;SDS011;7175;51.978;5.330;2023-09-19T07:30:22;52.73;;;48.97;;
14187;SDS011;7175;51.978;5.330;2023-09-19T07:32:50;49.00;;;45.50;;
14187;SDS011;7175;51.978;5.330;2023-09-19T07:35:18;47.73;;;44.23;;
14187;SDS011;7175;51.978;5.330;2023-09-19T07:37:47;48.30;;;44.80;;
14187;SDS011;7175;51.978;5.330;2023-09-19T07:40:18;49.20;;;45.70;;
14187;SDS011;7175;51.978;5.330;2023-09-19T07:42:49;48.60;;;45.17;;
14187;SDS011;7175;51.978;5.330;2023-09-19T07:45:17;49.20;;;45.73;;
14187;SDS011;7175;51.978;5.330;2023-09-19T07:47:45;49.90;;;46.40;;
14187;SDS011;7175;51.978;5.330;2023-09-19T07:50:14;47.90;;;44.50;;
14187;SDS011;7175;51.978;5.330;2023-09-19T07:52:45;44.20;;;41.00;;
14187;SDS011;7175;51.978;5.330;2023-09-19T07:55:13;41.00;;;37.90;;
14187;SDS011;7175;51.978;5.330;2023-09-19T07:57:43;38.47;;;35.47;;
14187;SDS011;7175;51.978;5.330;2023-09-19T08:00:14;41.73;;;38.73;;
14187;SDS011;7175;51.978;5.330;2023-09-19T08:02:43;42.70;;;39.60;;
14187;SDS011;7175;51.978;5.330;2023-09-19T08:05:15;37.63;;;34.83;;
14187;SDS011;7175;51.978;5.330;2023-09-19T08:07:45;37.43;;;34.70;;
14187;SDS011;7175;51.978;5.330;2023-09-19T08:10:15;40.10;;;37.20;;
14187;SDS011;7175;51.978;5.330;2023-09-19T08:12:46;37.50;;;34.73;;
14187;SDS011;7175;51.978;5.330;2023-09-19T08:15:17;37.53;;;34.73;;
14187;SDS011;7175;51.978;5.330;2023-09-19T08:17:46;35.20;;;32.60;;
14187;SDS011;7175;51.978;5.330;2023-09-19T08:20:15;34.80;;;32.20;;
14187;SDS011;7175;51.978;5.330;2023-09-19T08:22:47;38.10;;;35.30;;
14187;SDS011;7175;51.978;5.330;2023-09-19T08:25:19;36.73;;;34.03;;
14187;SDS011;7175;51.978;5.330;2023-09-19T08:27:48;35.73;;;33.03;;
14187;SDS011;7175;51.978;5.330;2023-09-19T08:30:19;33.03;;;30.53;;
14187;SDS011;7175;51.978;5.330;2023-09-19T08:32:51;31.23;;;28.83;;
14187;SDS011;7175;51.978;5.330;2023-09-19T08:35:24;28.97;;;26.67;;
14187;SDS011;7175;51.978;5.330;2023-09-19T08:37:53;27.33;;;25.13;;
14187;SDS011;7175;51.978;5.330;2023-09-19T08:40:22;28.03;;;25.83;;
14187;SDS011;7175;51.978;5.330;2023-09-19T08:42:51;29.63;;;27.33;;
14187;SDS011;7175;51.978;5.330;2023-09-19T08:45:22;29.13;;;26.83;;
14187;SDS011;7175;51.978;5.330;2023-09-19T08:47:56;26.83;;;24.63;;
14187;SDS011;7175;51.978;5.330;2023-09-19T08:50:43;28.27;;;25.97;;
14187;SDS011;7175;51.978;5.330;2023-09-19T08:53:21;26.53;;;24.33;;
14187;SDS011;7175;51.978;5.330;2023-09-19T08:55:54;25.40;;;23.30;;
14187;SDS011;7175;51.978;5.330;2023-09-19T08:58:25;25.07;;;22.97;;
14187;SDS011;7175;51.978;5.330;2023-09-19T09:00:57;24.90;;;22.80;;
14187;SDS011;7175;51.978;5.330;2023-09-19T09:03:29;24.83;;;22.83;;
14187;SDS011;7175;51.978;5.330;2023-09-19T09:06:00;24.03;;;22.03;;
14187;SDS011;7175;51.978;5.330;2023-09-19T09:08:30;23.37;;;21.37;;
14187;SDS011;7175;51.978;5.330;2023-09-19T09:10:59;23.40;;;21.40;;
14187;SDS011;7175;51.978;5.330;2023-09-19T09:13:27;23.53;;;21.53;;
14187;SDS011;7175;51.978;5.330;2023-09-19T09:15:58;22.90;;;20.90;;
14187;SDS011;7175;51.978;5.330;2023-09-19T09:18:27;22.80;;;20.90;;
14187;SDS011;7175;51.978;5.330;2023-09-19T09:20:56;23.00;;;21.10;;
14187;SDS011;7175;51.978;5.330;2023-09-19T09:23:24;22.50;;;20.60;;
14187;SDS011;7175;51.978;5.330;2023-09-19T09:25:55;23.10;;;21.20;;
14187;SDS011;7175;51.978;5.330;2023-09-19T09:28:30;22.37;;;20.47;;
14187;SDS011;7175;51.978;5.330;2023-09-19T09:31:01;22.27;;;20.37;;
14187;SDS011;7175;51.978;5.330;2023-09-19T09:33:34;22.07;;;20.17;;
14187;SDS011;7175;51.978;5.330;2023-09-19T09:36:03;22.70;;;20.80;;
14187;SDS011;7175;51.978;5.330;2023-09-19T09:38:42;22.50;;;20.60;;
14187;SDS011;7175;51.978;5.330;2023-09-19T09:41:12;23.67;;;21.67;;
14187;SDS011;7175;51.978;5.330;2023-09-19T09:43:53;23.00;;;20.90;;
14187;SDS011;7175;51.978;5.330;2023-09-19T09:46:23;22.70;;;20.80;;
14187;SDS011;7175;51.978;5.330;2023-09-19T09:49:11;21.87;;;19.97;;
14187;SDS011;7175;51.978;5.330;2023-09-19T09:51:45;22.10;;;20.20;;
14187;SDS011;7175;51.978;5.330;2023-09-19T09:54:26;22.10;;;20.20;;
14187;SDS011;7175;51.978;5.330;2023-09-19T09:57:01;21.77;;;19.87;;
14187;SDS011;7175;51.978;5.330;2023-09-19T09:59:46;21.97;;;20.10;;
14187;SDS011;7175;51.978;5.330;2023-09-19T10:02:25;21.57;;;19.77;;
14187;SDS011;7175;51.978;5.330;2023-09-19T10:04:56;21.73;;;19.83;;
14187;SDS011;7175;51.978;5.330;2023-09-19T10:07:36;21.37;;;19.47;;
14187;SDS011;7175;51.978;5.330;2023-09-19T10:10:10;21.47;;;19.57;;
14187;SDS011;7175;51.978;5.330;2023-09-19T10:12:44;21.50;;;19.60;;
14187;SDS011;7175;51.978;5.330;2023-09-19T10:15:14;21.27;;;19.47;;
14187;SDS011;7175;51.978;5.330;2023-09-19T10:17:48;21.60;;;19.80;;
14187;SDS011;7175;51.978;5.330;2023-09-19T10:20:20;21.33;;;19.53;;
14187;SDS011;7175;51.978;5.330;2023-09-19T10:23:04;21.23;;;19.43;;
14187;SDS011;7175;51.978;5.330;2023-09-19T10:25:39;21.70;;;19.90;;
14187;SDS011;7175;51.978;5.330;2023-09-19T10:28:09;22.07;;;20.17;;
14187;SDS011;7175;51.978;5.330;2023-09-19T10:30:40;22.20;;;20.30;;
14187;SDS011;7175;51.978;5.330;2023-09-19T10:33:13;22.03;;;20.20;;
14187;SDS011;7175;51.978;5.330;2023-09-19T10:35:43;21.97;;;20.07;;
14187;SDS011;7175;51.978;5.330;2023-09-19T10:38:13;21.50;;;19.70;;
14187;SDS011;7175;51.978;5.330;2023-09-19T10:40:47;21.40;;;19.50;;
14187;SDS011;7175;51.978;5.330;2023-09-19T10:43:18;22.73;;;20.83;;
14187;SDS011;7175;51.978;5.330;2023-09-19T10:45:48;22.27;;;20.37;;
14187;SDS011;7175;51.978;5.330;2023-09-19T10:48:20;21.77;;;19.97;;
14187;SDS011;7175;51.978;5.330;2023-09-19T10:51:04;22.00;;;20.10;;
14187;SDS011;7175;51.978;5.330;2023-09-19T10:53:41;21.27;;;19.47;;
14187;SDS011;7175;51.978;5.330;2023-09-19T10:56:16;24.57;;;22.57;;
14187;SDS011;7175;51.978;5.330;2023-09-19T10:58:49;21.90;;;20.00;;
14187;SDS011;7175;51.978;5.330;2023-09-19T11:01:17;22.90;;;21.00;;
14187;SDS011;7175;51.978;5.330;2023-09-19T11:03:48;21.13;;;19.30;;
14187;SDS011;7175;51.978;5.330;2023-09-19T11:06:59;22.17;;;20.27;;
14187;SDS011;7175;51.978;5.330;2023-09-19T11:09:45;21.00;;;19.20;;
14187;SDS011;7175;51.978;5.330;2023-09-19T11:24:29;21.30;;;19.50;;
14187;SDS011;7175;51.978;5.330;2023-09-19T11:27:14;21.63;;;19.83;;
14187;SDS011;7175;51.978;5.330;2023-09-19T11:29:44;20.97;;;19.17;;
14187;SDS011;7175;51.978;5.330;2023-09-19T11:32:13;21.07;;;19.27;;
14187;SDS011;7175;51.978;5.330;2023-09-19T11:34:45;21.07;;;19.27;;
14187;SDS011;7175;51.978;5.330;2023-09-19T11:40:37;21.17;;;19.37;;
14187;SDS011;7175;51.978;5.330;2023-09-19T11:46:08;20.97;;;19.17;;
14187;SDS011;7175;51.978;5.330;2023-09-19T11:48:40;21.70;;;19.80;;
14187;SDS011;7175;51.978;5.330;2023-09-19T11:51:12;21.73;;;19.83;;
14187;SDS011;7175;51.978;5.330;2023-09-19T11:53:46;20.97;;;19.17;;
14187;SDS011;7175;51.978;5.330;2023-09-19T11:56:16;21.37;;;19.57;;
14187;SDS011;7175;51.978;5.330;2023-09-19T11:58:48;21.10;;;19.30;;
14187;SDS011;7175;51.978;5.330;2023-09-19T12:01:21;20.90;;;19.10;;
14187;SDS011;7175;51.978;5.330;2023-09-19T12:03:53;21.40;;;19.50;;
14187;SDS011;7175;51.978;5.330;2023-09-19T12:06:25;21.23;;;19.43;;
14187;SDS011;7175;51.978;5.330;2023-09-19T12:08:54;21.17;;;19.37;;
14187;SDS011;7175;51.978;5.330;2023-09-19T12:11:27;21.00;;;19.20;;
14187;SDS011;7175;51.978;5.330;2023-09-19T12:14:00;20.73;;;18.97;;
14187;SDS011;7175;51.978;5.330;2023-09-19T12:16:30;20.97;;;19.17;;
14187;SDS011;7175;51.978;5.330;2023-09-19T12:21:56;20.57;;;18.77;;
14187;SDS011;7175;51.978;5.330;2023-09-19T12:24:26;20.67;;;18.87;;
14187;SDS011;7175;51.978;5.330;2023-09-19T12:27:00;21.00;;;19.20;;
14187;SDS011;7175;51.978;5.330;2023-09-19T12:29:31;21.40;;;19.60;;
14187;SDS011;7175;51.978;5.330;2023-09-19T12:32:09;21.13;;;19.33;;
14187;SDS011;7175;51.978;5.330;2023-09-19T12:34:38;21.20;;;19.40;;
14187;SDS011;7175;51.978;5.330;2023-09-19T12:37:11;21.03;;;19.23;;
14187;SDS011;7175;51.978;5.330;2023-09-19T12:39:43;21.27;;;19.47;;
14187;SDS011;7175;51.978;5.330;2023-09-19T12:42:16;21.30;;;19.50;;
14187;SDS011;7175;51.978;5.330;2023-09-19T12:44:46;21.00;;;19.20;;
14187;SDS011;7175;51.978;5.330;2023-09-19T12:47:19;20.80;;;19.00;;
14187;SDS011;7175;51.978;5.330;2023-09-19T12:50:05;20.90;;;19.10;;
14187;SDS011;7175;51.978;5.330;2023-09-19T12:52:42;20.60;;;18.80;;
14187;SDS011;7175;51.978;5.330;2023-09-19T12:55:25;20.73;;;18.93;;
14187;SDS011;7175;51.978;5.330;2023-09-19T12:57:56;20.07;;;18.27;;
14187;SDS011;7175;51.978;5.330;2023-09-19T13:00:32;20.60;;;18.80;;
14187;SDS011;7175;51.978;5.330;2023-09-19T13:03:11;20.60;;;18.80;;
14187;SDS011;7175;51.978;5.330;2023-09-19T13:05:49;20.60;;;18.80;;
14187;SDS011;7175;51.978;5.330;2023-09-19T13:08:23;20.93;;;19.13;;
14187;SDS011;7175;51.978;5.330;2023-09-19T13:11:02;20.97;;;19.17;;
14187;SDS011;7175;51.978;5.330;2023-09-19T13:13:37;21.00;;;19.10;;
14187;SDS011;7175;51.978;5.330;2023-09-19T13:16:07;21.77;;;19.87;;
14187;SDS011;7175;51.978;5.330;2023-09-19T13:18:42;21.67;;;19.77;;
14187;SDS011;7175;51.978;5.330;2023-09-19T13:21:12;21.23;;;19.33;;
14187;SDS011;7175;51.978;5.330;2023-09-19T13:23:51;20.83;;;19.03;;
14187;SDS011;7175;51.978;5.330;2023-09-19T13:26:21;20.87;;;19.07;;
14187;SDS011;7175;51.978;5.330;2023-09-19T13:28:49;21.27;;;19.37;;
14187;SDS011;7175;51.978;5.330;2023-09-19T13:31:17;21.50;;;19.60;;
14187;SDS011;7175;51.978;5.330;2023-09-19T13:33:47;21.03;;;19.23;;
14187;SDS011;7175;51.978;5.330;2023-09-19T13:36:16;21.17;;;19.43;;
14187;SDS011;7175;51.978;5.330;2023-09-19T13:38:45;20.57;;;18.87;;
14187;SDS011;7175;51.978;5.330;2023-09-19T13:41:16;21.20;;;19.40;;
14187;SDS011;7175;51.978;5.330;2023-09-19T13:43:45;20.80;;;19.00;;
14187;SDS011;7175;51.978;5.330;2023-09-19T13:46:14;20.43;;;18.63;;
14187;SDS011;7175;51.978;5.330;2023-09-19T13:48:44;20.90;;;19.10;;
14187;SDS011;7175;51.978;5.330;2023-09-19T13:51:12;20.83;;;19.03;;
14187;SDS011;7175;51.978;5.330;2023-09-19T13:53:41;21.03;;;19.13;;
14187;SDS011;7175;51.978;5.330;2023-09-19T13:56:09;21.03;;;19.13;;
14187;SDS011;7175;51.978;5.330;2023-09-19T13:58:39;20.97;;;19.10;;
14187;SDS011;7175;51.978;5.330;2023-09-19T14:01:09;20.60;;;18.80;;
14187;SDS011;7175;51.978;5.330;2023-09-19T14:03:39;21.27;;;19.40;;
14187;SDS011;7175;51.978;5.330;2023-09-19T14:06:12;21.50;;;19.60;;
14187;SDS011;7175;51.978;5.330;2023-09-19T14:08:41;21.67;;;19.77;;
14187;SDS011;7175;51.978;5.330;2023-09-19T14:11:10;21.27;;;19.47;;
14187;SDS011;7175;51.978;5.330;2023-09-19T14:13:42;21.57;;;19.67;;
14187;SDS011;7175;51.978;5.330;2023-09-19T14:16:13;21.70;;;19.80;;
14187;SDS011;7175;51.978;5.330;2023-09-19T14:18:44;21.57;;;19.67;;
14187;SDS011;7175;51.978;5.330;2023-09-19T14:21:13;21.30;;;19.40;;
14187;SDS011;7175;51.978;5.330;2023-09-19T14:23:41;21.63;;;19.73;;
14187;SDS011;7175;51.978;5.330;2023-09-19T14:26:10;21.80;;;19.90;;
14187;SDS011;7175;51.978;5.330;2023-09-19T14:28:38;21.77;;;19.87;;
14187;SDS011;7175;51.978;5.330;2023-09-19T14:31:09;21.23;;;19.43;;
14187;SDS011;7175;51.978;5.330;2023-09-19T14:33:38;21.20;;;19.40;;
14187;SDS011;7175;51.978;5.330;2023-09-19T14:36:07;21.33;;;19.53;;
14187;SDS011;7175;51.978;5.330;2023-09-19T14:38:37;21.13;;;19.33;;
14187;SDS011;7175;51.978;5.330;2023-09-19T14:41:06;21.30;;;19.50;;
14187;SDS011;7175;51.978;5.330;2023-09-19T14:43:35;21.23;;;19.43;;
14187;SDS011;7175;51.978;5.330;2023-09-19T14:46:06;21.27;;;19.47;;
14187;SDS011;7175;51.978;5.330;2023-09-19T14:48:37;21.17;;;19.37;;
14187;SDS011;7175;51.978;5.330;2023-09-19T14:51:06;21.43;;;19.53;;
14187;SDS011;7175;51.978;5.330;2023-09-19T14:53:36;20.80;;;19.00;;
14187;SDS011;7175;51.978;5.330;2023-09-19T14:56:06;20.80;;;19.00;;
14187;SDS011;7175;51.978;5.330;2023-09-19T14:58:35;20.90;;;19.10;;
14187;SDS011;7175;51.978;5.330;2023-09-19T15:01:05;20.97;;;19.17;;
14187;SDS011;7175;51.978;5.330;2023-09-19T15:03:36;21.33;;;19.50;;
14187;SDS011;7175;51.978;5.330;2023-09-19T15:06:07;21.43;;;19.63;;
14187;SDS011;7175;51.978;5.330;2023-09-19T15:08:36;21.13;;;19.33;;
14187;SDS011;7175;51.978;5.330;2023-09-19T15:11:07;21.50;;;19.70;;
14187;SDS011;7175;51.978;5.330;2023-09-19T15:13:36;20.67;;;18.87;;
14187;SDS011;7175;51.978;5.330;2023-09-19T15:16:06;20.63;;;18.83;;
14187;SDS011;7175;51.978;5.330;2023-09-19T15:18:38;20.50;;;18.70;;
14187;SDS011;7175;51.978;5.330;2023-09-19T15:21:09;20.40;;;18.60;;